createdAt,value
2023-05-03T00:00:10.363Z,10.90
2023-05-03T00:02:44.546Z,11.73
2023-05-03T00:05:12.981Z,10.82
2023-05-03T00:07:42.401Z,12.00
2023-05-03T00:10:12.784Z,12.25
2023-05-03T00:12:40.698Z,11.40
2023-05-03T00:15:08.977Z,10.52
2023-05-03T00:17:37.074Z,12.65
2023-05-03T00:20:05.107Z,13.93
2023-05-03T00:22:32.856Z,12.90
2023-05-03T00:25:00.354Z,12.27
2023-05-03T00:27:28.126Z,12.77
2023-05-03T00:29:55.976Z,11.23
2023-05-03T00:32:23.504Z,12.88
2023-05-03T00:34:57.304Z,10.90
2023-05-03T00:37:25.082Z,10.50
2023-05-03T00:39:52.717Z,12.13
2023-05-03T00:42:20.057Z,12.15
2023-05-03T00:44:47.778Z,11.80
2023-05-03T00:47:15.804Z,11.88
2023-05-03T00:49:43.180Z,12.02
2023-05-03T00:52:10.832Z,11.60
2023-05-03T00:54:38.237Z,12.25
2023-05-03T00:57:05.854Z,11.43
2023-05-03T00:59:34.581Z,11.40
2023-05-03T01:02:02.119Z,11.05
2023-05-03T01:04:29.638Z,16.90
2023-05-03T01:07:18.781Z,13.43
2023-05-03T01:10:21.727Z,14.23
2023-05-03T01:13:11.038Z,11.98
2023-05-03T01:15:46.365Z,12.25
2023-05-03T01:18:16.594Z,11.90
2023-05-03T01:20:46.218Z,11.93
2023-05-03T01:23:18.719Z,11.45
2023-05-03T01:25:46.115Z,12.70
2023-05-03T01:28:13.761Z,12.27
2023-05-03T01:30:41.869Z,12.07
2023-05-03T01:33:24.499Z,11.40
2023-05-03T01:35:55.050Z,11.02
2023-05-03T01:38:22.412Z,12.07
2023-05-03T01:40:52.685Z,14.18
2023-05-03T01:43:20.734Z,10.15
2023-05-03T01:45:48.185Z,14.80
2023-05-03T01:48:16.922Z,12.85
2023-05-03T01:50:44.760Z,12.00
2023-05-03T01:53:12.230Z,13.93
2023-05-03T01:55:39.933Z,10.68
2023-05-03T01:58:07.562Z,10.70
2023-05-03T02:00:34.924Z,11.82
2023-05-03T02:03:02.609Z,11.15
2023-05-03T02:05:30.024Z,10.90
2023-05-03T02:07:57.360Z,13.48
2023-05-03T02:10:25.389Z,10.85
2023-05-03T02:12:56.001Z,11.82
2023-05-03T02:15:23.354Z,9.93
2023-05-03T02:17:51.249Z,14.48
2023-05-03T02:20:18.729Z,12.57
2023-05-03T02:22:46.114Z,11.95
2023-05-03T02:25:13.722Z,13.43
2023-05-03T02:27:41.395Z,12.60
2023-05-03T02:30:09.090Z,13.45
2023-05-03T02:32:38.170Z,14.85
2023-05-03T02:35:06.573Z,11.90
2023-05-03T02:37:34.026Z,11.57
2023-05-03T02:40:02.879Z,13.90
2023-05-03T02:42:30.837Z,11.85
2023-05-03T02:44:58.346Z,12.10
2023-05-03T02:47:26.466Z,13.93
2023-05-03T02:49:53.952Z,10.95
2023-05-03T02:52:21.278Z,12.63
2023-05-03T02:54:49.643Z,13.62
2023-05-03T02:57:17.519Z,12.85
2023-05-03T02:59:44.867Z,11.43
2023-05-03T03:02:12.538Z,11.93
2023-05-03T03:04:39.869Z,14.50
2023-05-03T03:07:07.304Z,15.57
2023-05-03T03:09:36.019Z,13.18
2023-05-03T03:12:03.827Z,13.32
2023-05-03T03:14:32.755Z,11.60
2023-05-03T03:17:01.106Z,11.07
2023-05-03T03:19:28.797Z,11.63
2023-05-03T03:21:56.291Z,14.05
2023-05-03T03:24:25.250Z,13.40
2023-05-03T03:26:53.518Z,13.88
2023-05-03T03:29:20.910Z,14.05
2023-05-03T03:31:48.896Z,16.10
2023-05-03T03:34:16.724Z,12.52
2023-05-03T03:36:44.161Z,13.82
2023-05-03T03:39:11.863Z,11.85
2023-05-03T03:41:39.449Z,14.52
2023-05-03T03:44:07.095Z,10.63
2023-05-03T03:46:34.887Z,12.37
2023-05-03T03:49:02.361Z,15.48
2023-05-03T03:51:31.238Z,17.42
2023-05-03T03:53:59.168Z,12.02
2023-05-03T03:56:27.528Z,14.13
2023-05-03T03:58:56.398Z,12.20
2023-05-03T04:01:25.069Z,13.55
2023-05-03T04:03:53.186Z,13.77
2023-05-03T04:06:20.983Z,15.52
2023-05-03T04:08:49.450Z,13.75
2023-05-03T04:11:17.611Z,12.95
2023-05-03T04:13:45.199Z,13.77
2023-05-03T04:16:12.587Z,13.40
2023-05-03T04:18:41.311Z,15.85
2023-05-03T04:21:08.982Z,14.10
2023-05-03T04:23:36.342Z,10.18
2023-05-03T04:26:05.251Z,9.50
2023-05-03T04:28:34.013Z,10.30
2023-05-03T04:31:01.426Z,13.20
2023-05-03T04:33:31.131Z,11.65
2023-05-03T04:36:00.368Z,13.68
2023-05-03T04:38:28.237Z,14.45
2023-05-03T04:40:58.306Z,10.95
2023-05-03T04:43:26.189Z,15.48
2023-05-03T04:45:54.537Z,14.02
2023-05-03T04:48:22.307Z,12.18
2023-05-03T04:50:49.754Z,11.32
2023-05-03T04:53:17.820Z,13.95
2023-05-03T04:55:47.498Z,12.15
2023-05-03T04:58:14.935Z,15.00
2023-05-03T05:00:42.863Z,14.82
2023-05-03T05:03:11.819Z,11.57
2023-05-03T05:05:39.802Z,14.15
2023-05-03T05:08:07.624Z,15.48
2023-05-03T05:10:41.015Z,13.45
2023-05-03T05:13:09.104Z,11.10
2023-05-03T05:15:37.449Z,15.10
2023-05-03T05:18:05.174Z,10.95
2023-05-03T05:20:32.894Z,14.23
2023-05-03T05:23:01.616Z,12.80
2023-05-03T05:25:29.310Z,10.65
2023-05-03T05:27:57.365Z,13.38
2023-05-03T05:30:25.730Z,13.15
2023-05-03T05:32:53.410Z,9.13
2023-05-03T05:35:21.053Z,11.85
2023-05-03T05:37:48.805Z,9.43
2023-05-03T05:40:16.391Z,9.85
2023-05-03T05:42:46.228Z,11.10
2023-05-03T05:45:14.014Z,9.13
2023-05-03T05:47:41.860Z,15.18
2023-05-03T05:50:15.274Z,8.20
2023-05-03T05:52:46.214Z,9.75
2023-05-03T05:55:15.800Z,9.00
2023-05-03T05:57:44.208Z,10.45
2023-05-03T06:00:15.565Z,8.07
2023-05-03T06:02:44.698Z,7.57
2023-05-03T06:05:12.453Z,11.68
2023-05-03T06:07:40.672Z,9.65
2023-05-03T06:10:08.542Z,13.52
2023-05-03T06:12:36.961Z,11.88
2023-05-03T06:15:07.006Z,10.90
2023-05-03T06:17:36.080Z,9.23
2023-05-03T06:20:04.914Z,9.82
2023-05-03T06:22:32.643Z,8.60
2023-05-03T06:25:00.392Z,10.95
2023-05-03T06:27:28.076Z,9.45
2023-05-03T06:29:56.123Z,9.35
2023-05-03T06:32:23.956Z,10.27
2023-05-03T06:34:52.948Z,10.27
2023-05-03T06:37:20.463Z,6.87
2023-05-03T06:39:49.787Z,11.43
2023-05-03T06:42:19.800Z,10.30
2023-05-03T06:44:48.250Z,8.75
2023-05-03T06:47:15.975Z,8.23
2023-05-03T06:49:43.358Z,10.73
2023-05-03T06:52:11.900Z,7.97
2023-05-03T06:54:40.420Z,7.37
2023-05-03T06:57:07.792Z,11.20
2023-05-03T06:59:35.155Z,9.60
2023-05-03T07:02:02.920Z,7.18
2023-05-03T07:04:30.409Z,12.60
2023-05-03T07:06:57.825Z,9.40
2023-05-03T07:09:35.433Z,11.60
2023-05-03T07:12:10.031Z,9.10
2023-05-03T07:14:38.969Z,9.60
2023-05-03T07:17:06.353Z,9.52
2023-05-03T07:19:33.701Z,8.05
2023-05-03T07:22:03.344Z,9.82
2023-05-03T07:24:30.734Z,10.82
2023-05-03T07:26:58.402Z,11.75
2023-05-03T07:29:27.317Z,7.97
2023-05-03T07:31:54.911Z,8.32
2023-05-03T07:34:22.331Z,9.38
2023-05-03T07:36:50.004Z,11.60
2023-05-03T07:39:17.535Z,9.27
2023-05-03T07:41:45.014Z,11.90
2023-05-03T07:44:12.808Z,8.18
2023-05-03T07:46:40.504Z,9.75
2023-05-03T07:49:07.919Z,13.68
2023-05-03T07:51:36.327Z,11.57
2023-05-03T07:54:04.296Z,9.10
2023-05-03T07:56:31.687Z,9.68
2023-05-03T07:59:08.607Z,9.73
2023-05-03T08:01:38.052Z,10.25
2023-05-03T08:04:06.007Z,10.50
2023-05-03T08:06:35.590Z,10.77
2023-05-03T08:09:04.704Z,10.68
2023-05-03T08:11:32.691Z,10.98
2023-05-03T08:14:00.053Z,11.45
2023-05-03T08:16:27.755Z,12.98
2023-05-03T08:18:55.435Z,10.55
2023-05-03T08:21:24.847Z,9.52
2023-05-03T08:23:52.277Z,10.98
2023-05-03T08:26:22.142Z,9.43
2023-05-03T08:28:49.828Z,9.38
2023-05-03T08:31:17.694Z,10.35
2023-05-03T08:33:45.708Z,13.30
2023-05-03T08:36:13.089Z,10.38
2023-05-03T08:38:43.490Z,11.45
2023-05-03T08:41:42.965Z,10.38
2023-05-03T08:44:12.267Z,11.63
2023-05-03T08:46:40.447Z,10.40
2023-05-03T08:49:07.876Z,10.10
2023-05-03T08:51:36.068Z,10.32
2023-05-03T08:54:03.859Z,10.50
2023-05-03T08:56:39.477Z,10.05
2023-05-03T08:59:10.290Z,11.35
2023-05-03T09:01:38.323Z,10.38
2023-05-03T09:04:06.332Z,10.77
2023-05-03T09:06:34.403Z,9.40
2023-05-03T09:09:02.141Z,9.85
2023-05-03T09:11:30.839Z,10.38
2023-05-03T09:14:13.339Z,10.43
2023-05-03T09:16:41.603Z,8.90
2023-05-03T09:19:11.583Z,10.13
2023-05-03T09:21:43.458Z,10.35
2023-05-03T09:24:21.088Z,10.45
2023-05-03T09:26:50.521Z,11.02
2023-05-03T09:29:31.576Z,15.75
2023-05-03T09:32:00.609Z,10.20
2023-05-03T09:34:28.287Z,11.80
2023-05-03T09:36:56.324Z,8.30
2023-05-03T09:39:23.684Z,8.15
2023-05-03T09:41:51.327Z,9.23
2023-05-03T09:44:18.709Z,8.73
2023-05-03T09:47:05.468Z,7.80
2023-05-03T09:49:33.222Z,9.50
2023-05-03T09:52:03.491Z,10.32
2023-05-03T09:54:35.435Z,9.07
2023-05-03T09:57:04.958Z,10.73
2023-05-03T09:59:33.293Z,8.93
2023-05-03T10:02:03.145Z,11.38
2023-05-03T10:04:44.272Z,10.18
2023-05-03T10:07:13.481Z,9.18
2023-05-03T10:09:45.469Z,8.90
2023-05-03T10:12:13.256Z,9.07
2023-05-03T10:14:42.083Z,9.23
2023-05-03T10:17:17.008Z,10.10
2023-05-03T10:19:51.799Z,10.00
2023-05-03T10:22:19.216Z,9.88
2023-05-03T10:25:02.605Z,8.93
2023-05-03T10:27:44.178Z,10.00
2023-05-03T10:30:34.651Z,9.05
2023-05-03T10:33:14.479Z,9.02
2023-05-03T10:35:43.769Z,8.60
2023-05-03T10:38:22.431Z,9.70
2023-05-03T10:40:50.252Z,9.43
2023-05-03T10:43:29.949Z,8.65
2023-05-03T10:46:00.963Z,10.07
2023-05-03T10:48:28.755Z,10.63
2023-05-03T10:50:56.563Z,9.63
2023-05-03T10:53:44.993Z,8.70
2023-05-03T10:56:13.666Z,8.73
2023-05-03T10:58:43.743Z,9.07
2023-05-03T11:01:15.279Z,10.77
2023-05-03T11:03:48.886Z,8.43
2023-05-03T11:06:41.269Z,8.20
2023-05-03T11:09:09.825Z,8.63
2023-05-03T11:11:39.262Z,10.60
2023-05-03T11:14:08.229Z,7.60
2023-05-03T11:16:36.741Z,8.10
2023-05-03T11:19:04.191Z,7.70
2023-05-03T11:21:32.057Z,7.60
2023-05-03T11:23:59.807Z,8.43
2023-05-03T11:26:27.598Z,8.55
2023-05-03T11:28:55.013Z,10.20
2023-05-03T11:31:23.025Z,9.93
2023-05-03T11:33:51.072Z,8.80
2023-05-03T11:36:18.480Z,8.13
2023-05-03T11:38:46.276Z,12.75
2023-05-03T11:41:14.903Z,11.48
2023-05-03T11:43:43.571Z,8.20
2023-05-03T11:46:11.332Z,7.78
2023-05-03T11:48:39.294Z,8.82
2023-05-03T11:51:07.967Z,8.05
2023-05-03T11:53:36.362Z,8.52
2023-05-03T11:56:03.799Z,8.45
2023-05-03T11:58:32.090Z,9.02
2023-05-03T12:00:59.754Z,8.50
2023-05-03T12:03:37.103Z,8.35
2023-05-03T12:06:06.448Z,8.25
2023-05-03T12:08:37.073Z,13.90
2023-05-03T12:11:06.973Z,9.27
2023-05-03T12:13:38.748Z,8.00
2023-05-03T12:16:11.849Z,8.10
2023-05-03T12:18:56.675Z,8.35
2023-05-03T12:23:57.247Z,7.25
2023-05-03T12:26:26.369Z,7.82
2023-05-03T12:28:56.001Z,8.63
2023-05-03T12:31:24.695Z,7.57
2023-05-03T12:36:26.109Z,7.62
2023-05-03T12:38:56.604Z,9.65
2023-05-03T12:42:04.604Z,6.18
2023-05-03T12:44:17.036Z,7.57
2023-05-03T12:46:45.726Z,7.12
2023-05-03T12:49:15.021Z,8.25
2023-05-03T12:51:43.579Z,8.38
2023-05-03T12:54:12.335Z,6.12
2023-05-03T12:56:41.161Z,6.57
2023-05-03T13:06:46.993Z,7.03
2023-05-03T13:09:20.853Z,6.12
2023-05-03T13:11:50.385Z,6.00
2023-05-03T13:14:21.339Z,5.80
2023-05-03T13:16:49.550Z,6.97
2023-05-03T13:19:17.022Z,5.90
2023-05-03T13:21:44.400Z,6.97
2023-05-03T13:24:12.295Z,6.30
2023-05-03T13:26:39.667Z,7.70
2023-05-03T13:29:07.398Z,7.53
2023-05-03T13:31:35.387Z,5.50
2023-05-03T13:34:02.782Z,5.37
2023-05-03T13:36:30.666Z,6.30
2023-05-03T13:38:59.060Z,5.53
2023-05-03T13:41:26.478Z,5.80
2023-05-03T13:43:53.866Z,6.90
2023-05-03T13:46:21.550Z,5.53
2023-05-03T13:48:49.165Z,5.57
2023-05-03T13:51:16.572Z,5.15
2023-05-03T13:53:44.714Z,6.90
2023-05-03T13:56:12.084Z,5.10
2023-05-03T13:58:39.885Z,7.00
2023-05-03T14:01:08.093Z,5.18
2023-05-03T14:03:35.885Z,7.30
2023-05-03T14:06:03.514Z,8.18
2023-05-03T14:08:30.977Z,6.15
2023-05-03T14:10:58.668Z,6.82
2023-05-03T14:13:27.144Z,6.03
2023-05-03T14:15:55.177Z,5.60
2023-05-03T14:18:22.936Z,5.78
2023-05-03T14:20:50.974Z,6.45
2023-05-03T14:23:18.423Z,6.78
2023-05-03T14:25:46.034Z,8.40
2023-05-03T14:28:13.366Z,5.62
2023-05-03T14:30:40.815Z,6.95
2023-05-03T14:33:10.693Z,5.50
2023-05-03T14:35:38.176Z,7.50
2023-05-03T14:38:06.399Z,5.72
2023-05-03T14:40:34.059Z,6.35
2023-05-03T14:43:01.417Z,7.37
2023-05-03T14:45:28.878Z,6.28
2023-05-03T14:47:56.605Z,6.07
2023-05-03T14:50:23.968Z,6.37
2023-05-03T14:52:51.689Z,7.75
2023-05-03T14:55:19.434Z,6.70
2023-05-03T14:57:47.408Z,6.43
2023-05-03T15:00:17.665Z,6.60
2023-05-03T15:02:45.785Z,6.60
2023-05-03T15:05:13.413Z,6.37
2023-05-03T15:07:40.803Z,5.68
2023-05-03T15:10:08.972Z,6.60
2023-05-03T15:12:36.642Z,6.40
2023-05-03T15:15:05.048Z,8.45
2023-05-03T15:17:32.740Z,6.20
2023-05-03T15:20:00.123Z,8.65
2023-05-03T15:22:27.555Z,5.68
2023-05-03T15:24:55.448Z,6.03
2023-05-03T15:27:22.831Z,7.35
2023-05-03T15:29:50.197Z,8.73
2023-05-03T15:32:17.832Z,7.78
2023-05-03T15:34:45.205Z,7.15
2023-05-03T15:37:13.079Z,6.75
2023-05-03T15:39:40.790Z,6.25
2023-05-03T15:42:08.513Z,7.43
2023-05-03T15:44:36.014Z,11.20
2023-05-03T15:47:03.630Z,6.68
2023-05-03T15:49:31.013Z,8.13
2023-05-03T15:51:58.365Z,9.07
2023-05-03T15:54:26.013Z,5.37
2023-05-03T15:56:53.800Z,6.50
2023-05-03T15:59:21.311Z,7.20
2023-05-03T16:01:49.237Z,6.20
2023-05-03T16:04:17.152Z,5.97
2023-05-03T16:06:44.630Z,9.55
2023-05-03T16:09:12.783Z,7.80
2023-05-03T16:11:40.460Z,7.80
2023-05-03T16:14:09.597Z,7.90
2023-05-03T16:16:38.740Z,7.57
2023-05-03T16:19:07.167Z,9.10
2023-05-03T16:21:34.499Z,9.43
2023-05-03T16:24:01.944Z,9.80
2023-05-03T16:26:29.642Z,8.82
2023-05-03T16:28:57.099Z,9.38
2023-05-03T16:31:24.450Z,10.98
2023-05-03T16:33:52.222Z,9.30
2023-05-03T16:36:19.813Z,9.82
2023-05-03T16:38:47.145Z,20.20
2023-05-03T16:41:14.967Z,8.85
2023-05-03T16:43:42.301Z,10.13
2023-05-03T16:46:09.745Z,11.30
2023-05-03T16:48:37.386Z,8.60
2023-05-03T16:51:04.846Z,10.68
2023-05-03T16:53:32.677Z,9.63
2023-05-03T16:56:00.995Z,11.82
2023-05-03T16:58:28.492Z,10.77
2023-05-03T17:00:56.184Z,14.95
2023-05-03T17:03:24.215Z,10.15
2023-05-03T17:05:52.127Z,13.00
2023-05-03T17:08:19.515Z,11.20
2023-05-03T17:10:47.140Z,9.85
2023-05-03T17:13:15.019Z,13.15
2023-05-03T17:15:42.596Z,11.02
2023-05-03T17:18:10.389Z,8.82
2023-05-03T17:20:39.036Z,10.25
2023-05-03T17:23:06.383Z,10.90
2023-05-03T17:25:34.171Z,15.60
2023-05-03T17:28:01.603Z,10.88
2023-05-03T17:30:29.207Z,10.43
2023-05-03T17:32:57.062Z,9.07
2023-05-03T17:35:24.470Z,9.40
2023-05-03T17:37:51.865Z,8.77
2023-05-03T17:40:19.489Z,9.43
2023-05-03T17:42:47.132Z,11.27
2023-05-03T17:45:14.707Z,10.02
2023-05-03T17:47:42.444Z,8.95
2023-05-03T17:50:11.685Z,10.23
2023-05-03T17:52:39.876Z,9.85
2023-05-03T17:55:08.205Z,9.07
2023-05-03T17:57:37.379Z,11.18
2023-05-03T18:00:06.094Z,8.90
2023-05-03T18:02:34.357Z,9.98
2023-05-03T18:05:02.244Z,11.57
2023-05-03T18:07:29.578Z,10.05
2023-05-03T18:09:57.367Z,9.60
2023-05-03T18:12:24.699Z,10.73
2023-05-03T18:14:59.291Z,8.30
2023-05-03T18:17:27.458Z,10.32
2023-05-03T18:19:55.638Z,10.40
2023-05-03T18:22:23.369Z,9.68
2023-05-03T18:24:54.588Z,12.30
2023-05-03T18:27:22.671Z,9.90
2023-05-03T18:29:50.067Z,11.70
2023-05-03T18:32:17.752Z,12.25
2023-05-03T18:34:45.091Z,9.93
2023-05-03T18:37:14.794Z,13.10
2023-05-03T18:39:42.786Z,8.23
2023-05-03T18:42:10.598Z,8.65
2023-05-03T18:44:39.642Z,11.38
2023-05-03T18:47:09.464Z,9.45
2023-05-03T18:49:37.006Z,11.45
2023-05-03T18:52:05.402Z,11.65
2023-05-03T18:54:33.041Z,14.52
2023-05-03T18:57:01.803Z,9.15
2023-05-03T18:59:29.582Z,10.15
2023-05-03T19:01:57.181Z,10.20
2023-05-03T19:04:24.652Z,10.52
2023-05-03T19:06:52.126Z,10.45
2023-05-03T19:09:20.023Z,12.10
2023-05-03T19:11:49.082Z,11.75
2023-05-03T19:14:16.513Z,10.20
2023-05-03T19:16:44.231Z,10.73
2023-05-03T19:19:13.565Z,11.00
2023-05-03T19:21:42.400Z,8.60
2023-05-03T19:24:14.987Z,7.95
2023-05-03T19:26:42.564Z,7.87
2023-05-03T19:29:10.272Z,8.35
2023-05-03T19:31:37.685Z,12.37
2023-05-03T19:34:05.113Z,8.15
2023-05-03T19:36:32.847Z,8.93
2023-05-03T19:39:00.318Z,7.15
2023-05-03T19:41:27.722Z,7.70
2023-05-03T19:43:55.739Z,8.50
2023-05-03T19:46:23.191Z,8.38
2023-05-03T19:48:50.614Z,11.63
2023-05-03T19:51:18.320Z,8.82
2023-05-03T19:53:48.046Z,15.63
2023-05-03T19:56:16.300Z,7.07
2023-05-03T19:58:43.912Z,7.20
2023-05-03T20:01:11.340Z,7.55
2023-05-03T20:03:39.295Z,11.35
2023-05-03T20:06:06.710Z,7.53
2023-05-03T20:08:35.994Z,7.65
2023-05-03T20:11:03.833Z,9.85
2023-05-03T20:13:31.251Z,7.80
2023-05-03T20:15:58.641Z,6.87
2023-05-03T20:18:26.255Z,8.15
2023-05-03T20:20:53.748Z,10.85
2023-05-03T20:23:21.480Z,8.65
2023-05-03T20:25:49.422Z,9.95
2023-05-03T20:28:16.812Z,8.05
2023-05-03T20:30:44.215Z,8.73
2023-05-03T20:33:12.361Z,6.80
2023-05-03T20:35:39.800Z,10.40
2023-05-03T20:38:07.162Z,6.75
2023-05-03T20:40:34.898Z,6.30
2023-05-03T20:43:02.316Z,8.45
2023-05-03T20:45:29.934Z,7.95
2023-05-03T20:47:57.633Z,9.15
2023-05-03T20:50:25.030Z,8.05
2023-05-03T20:52:52.417Z,6.70
2023-05-03T20:55:20.187Z,8.05
2023-05-03T20:57:47.570Z,7.62
2023-05-03T21:00:18.047Z,7.47
2023-05-03T21:02:46.453Z,8.43
2023-05-03T21:05:13.937Z,7.90
2023-05-03T21:07:41.786Z,10.02
2023-05-03T21:10:09.849Z,9.18
2023-05-03T21:12:37.246Z,6.70
2023-05-03T21:15:05.065Z,6.68
2023-05-03T21:17:32.935Z,7.47
2023-05-03T21:20:00.259Z,12.68
2023-05-03T21:22:27.646Z,9.27
2023-05-03T21:24:55.262Z,10.23
2023-05-03T21:27:22.640Z,7.85
2023-05-03T21:29:50.025Z,8.02
2023-05-03T21:32:17.694Z,7.12
2023-05-03T21:34:45.010Z,8.13
2023-05-03T21:37:12.390Z,6.28
2023-05-03T21:39:40.064Z,8.45
2023-05-03T21:42:07.502Z,8.10
2023-05-03T21:44:35.181Z,7.12
2023-05-03T21:47:03.125Z,7.82
2023-05-03T21:49:30.649Z,7.22
2023-05-03T21:51:58.197Z,8.88
2023-05-03T21:54:26.895Z,7.78
2023-05-03T21:56:54.223Z,9.07
2023-05-03T21:59:21.643Z,8.15
2023-05-03T22:01:49.320Z,10.10
2023-05-03T22:04:16.941Z,9.55
2023-05-03T22:06:44.454Z,8.00
2023-05-03T22:09:11.823Z,9.00
2023-05-03T22:11:39.484Z,7.47
2023-05-03T22:14:08.351Z,8.07
2023-05-03T22:16:37.688Z,6.45
2023-05-03T22:19:05.453Z,9.95
2023-05-03T22:21:32.874Z,6.57
2023-05-03T22:24:00.194Z,8.20
2023-05-03T22:26:27.837Z,7.95
2023-05-03T22:28:55.260Z,6.65
2023-05-03T22:31:22.645Z,9.05
2023-05-03T22:33:50.286Z,9.05
2023-05-03T22:36:17.674Z,8.15
2023-05-03T22:38:45.057Z,6.35
2023-05-03T22:41:12.705Z,8.57
2023-05-03T22:43:40.098Z,9.98
2023-05-03T22:46:07.813Z,10.77
2023-05-03T22:48:35.546Z,8.55
2023-05-03T22:51:02.920Z,7.35
2023-05-03T22:53:30.360Z,8.23
2023-05-03T22:55:58.733Z,8.55
2023-05-03T22:58:26.167Z,8.40
2023-05-03T23:00:53.857Z,7.57
2023-05-03T23:03:22.382Z,11.15
2023-05-03T23:05:51.543Z,7.35
2023-05-03T23:08:18.953Z,8.13
2023-05-03T23:10:46.581Z,8.18
2023-05-03T23:13:13.970Z,8.40
2023-05-03T23:15:41.583Z,12.25
2023-05-03T23:18:09.406Z,9.98
2023-05-03T23:20:37.671Z,10.65
2023-05-03T23:23:05.040Z,11.63
2023-05-03T23:25:32.692Z,11.65
2023-05-03T23:28:00.090Z,11.27
2023-05-03T23:30:28.151Z,10.30
2023-05-03T23:32:56.309Z,16.08
2023-05-03T23:35:24.138Z,13.43
2023-05-03T23:37:51.528Z,15.00
2023-05-03T23:40:19.329Z,15.82
2023-05-03T23:42:46.748Z,11.00
2023-05-03T23:45:14.095Z,12.70
2023-05-03T23:47:41.737Z,14.77
2023-05-03T23:50:09.502Z,13.77
2023-05-03T23:52:37.092Z,13.98
2023-05-03T23:55:05.597Z,13.45
2023-05-03T23:57:32.948Z,12.23
